Time;durP1;ratioP1;P1;durP2;ratioP2;P2;SDS_P1;SDS_P2;PMS_P1;PMS_P2;Temp;Humidity;BMP_temperature;BMP_pressure;BME280_temperature;BME280_humidity;BME280_pressure;Samples;Min_cycle;Max_cycle;Signal;HPM_P1;HPM_P2
2022/10/26 00:00:45;;;;;;;17.00;8.90;;;;;;;;;;5008900;28;20048;-73
2022/10/26 00:03:10;;;;;;;17.33;8.77;;;;;;;;;;5006614;28;20041;-74
2022/10/26 00:05:35;;;;;;;16.17;9.13;;;;;;;;;;5001165;28;20125;-72
2022/10/26 00:08:01;;;;;;;22.08;10.48;;;;;;;;;;4997891;28;20034;-69
2022/10/26 00:10:26;;;;;;;22.67;10.60;;;;;;;;;;4993056;28;21067;-69
2022/10/26 00:12:51;;;;;;;25.65;11.82;;;;;;;;;;4994623;28;20405;-69
2022/10/26 00:15:22;;;;;;;22.45;11.07;;;;;;;;;;4996342;28;20120;-68
2022/10/26 00:17:47;;;;;;;28.55;11.95;;;;;;;;;;4996921;28;20036;-72
2022/10/26 00:20:13;;;;;;;19.60;11.82;;;;;;;;;;4996887;28;20856;-71
2022/10/26 00:22:38;;;;;;;18.95;9.93;;;;;;;;;;4996875;28;20130;-70
2022/10/26 00:25:04;;;;;;;21.48;11.38;;;;;;;;;;4997548;28;21351;-69
2022/10/26 00:27:33;;;;;;;21.30;10.73;;;;;;;;;;5011997;28;20790;-71
2022/10/26 00:29:58;;;;;;;25.95;11.32;;;;;;;;;;4995899;28;20045;-69
2022/10/26 00:32:24;;;;;;;21.05;10.75;;;;;;;;;;5001137;28;20516;-70
2022/10/26 00:34:49;;;;;;;26.60;11.23;;;;;;;;;;4998109;28;20126;-69
2022/10/26 00:37:14;;;;;;;21.83;11.15;;;;;;;;;;4996609;28;20052;-69
2022/10/26 00:39:40;;;;;;;17.55;10.32;;;;;;;;;;4999470;28;20634;-69
2022/10/26 00:42:07;;;;;;;29.60;11.05;;;;;;;;;;4997881;28;22578;-69
2022/10/26 00:44:45;;;;;;;19.00;10.23;;;;;;;;;;4983921;28;20106;-69
2022/10/26 00:47:22;;;;;;;19.00;8.48;;;;;;;;;;5000531;28;20099;-69
2022/10/26 00:49:48;;;;;;;16.90;8.38;;;;;;;;;;5000783;28;20832;-69
2022/10/26 00:52:15;;;;;;;16.20;7.68;;;;;;;;;;4982178;28;20052;-69
2022/10/26 00:54:41;;;;;;;19.38;8.23;;;;;;;;;;5001679;28;20677;-69
2022/10/26 00:57:06;;;;;;;14.75;7.63;;;;;;;;;;5000407;28;20041;-70
2022/10/26 00:59:32;;;;;;;21.23;7.47;;;;;;;;;;4997332;28;20034;-69
2022/10/26 01:01:57;;;;;;;13.93;7.00;;;;;;;;;;4998188;28;20037;-69
2022/10/26 01:04:23;;;;;;;13.90;7.65;;;;;;;;;;4997548;28;20037;-69
2022/10/26 01:06:48;;;;;;;25.50;14.00;;;;;;;;;;4999691;28;20050;-69
2022/10/26 01:09:14;;;;;;;22.00;13.23;;;;;;;;;;5000667;28;20114;-69
2022/10/26 01:11:39;;;;;;;19.38;11.77;;;;;;;;;;4996317;28;20055;-68
2022/10/26 01:14:06;;;;;;;24.70;13.23;;;;;;;;;;4997398;28;20033;-69
2022/10/26 01:16:32;;;;;;;25.27;14.48;;;;;;;;;;4998751;28;20794;-69
2022/10/26 01:19:15;;;;;;;25.90;17.58;;;;;;;;;;4996941;28;20029;-69
2022/10/26 01:21:41;;;;;;;32.92;17.63;;;;;;;;;;4999169;28;20683;-69
2022/10/26 01:24:09;;;;;;;23.80;17.48;;;;;;;;;;4998694;28;20048;-69
2022/10/26 01:26:45;;;;;;;21.05;14.23;;;;;;;;;;4997593;28;20056;-68
2022/10/26 01:29:34;;;;;;;23.48;15.93;;;;;;;;;;4996931;28;20041;-69
2022/10/26 01:32:04;;;;;;;27.48;17.58;;;;;;;;;;4995355;28;20038;-69
2022/10/26 01:34:33;;;;;;;20.70;15.30;;;;;;;;;;4997245;28;20036;-69
2022/10/26 01:37:06;;;;;;;18.00;13.25;;;;;;;;;;4997220;28;20029;-69
2022/10/26 01:39:47;;;;;;;20.17;11.35;;;;;;;;;;4997007;28;20025;-70
2022/10/26 01:42:14;;;;;;;14.57;8.82;;;;;;;;;;4998637;28;20183;-69
2022/10/26 01:44:42;;;;;;;13.98;8.07;;;;;;;;;;4998100;28;20793;-71
2022/10/26 01:47:12;;;;;;;17.20;7.70;;;;;;;;;;4999625;28;20188;-69
2022/10/26 01:49:40;;;;;;;19.48;7.32;;;;;;;;;;4998626;28;20168;-69
2022/10/26 01:52:08;;;;;;;18.67;7.78;;;;;;;;;;4997645;28;20037;-70
2022/10/26 01:54:36;;;;;;;13.55;7.47;;;;;;;;;;5000403;28;20037;-70
2022/10/26 01:57:04;;;;;;;16.30;8.27;;;;;;;;;;4995532;28;20029;-69
2022/10/26 01:59:47;;;;;;;17.38;7.85;;;;;;;;;;4998666;28;20063;-70
2022/10/26 02:02:15;;;;;;;14.23;8.55;;;;;;;;;;4999207;28;20064;-69
2022/10/26 02:04:43;;;;;;;15.43;9.40;;;;;;;;;;4998423;28;20537;-69
2022/10/26 02:07:30;;;;;;;17.65;11.77;;;;;;;;;;4997405;28;21292;-69
2022/10/26 02:10:04;;;;;;;17.00;11.13;;;;;;;;;;4997173;28;20123;-71
2022/10/26 02:12:32;;;;;;;17.60;9.80;;;;;;;;;;4997619;28;20053;-71
2022/10/26 02:15:06;;;;;;;14.43;9.30;;;;;;;;;;4994761;28;20252;-69
2022/10/26 02:17:44;;;;;;;14.80;8.15;;;;;;;;;;4996483;28;20776;-70
2022/10/26 02:20:16;;;;;;;13.27;7.97;;;;;;;;;;4996784;28;20103;-69
2022/10/26 02:22:44;;;;;;;13.90;7.75;;;;;;;;;;4996622;28;20136;-70
2022/10/26 02:25:13;;;;;;;13.00;7.20;;;;;;;;;;4997854;28;20040;-70
2022/10/26 02:27:43;;;;;;;10.70;6.40;;;;;;;;;;4995078;28;20887;-69
2022/10/26 02:30:09;;;;;;;11.10;5.88;;;;;;;;;;4996759;28;20041;-69
2022/10/26 02:32:39;;;;;;;9.50;5.38;;;;;;;;;;4998213;28;20642;-69
2022/10/26 02:35:05;;;;;;;10.70;6.05;;;;;;;;;;4996851;28;20536;-70
2022/10/26 02:37:31;;;;;;;14.95;7.45;;;;;;;;;;4997174;28;20038;-69
2022/10/26 02:40:00;;;;;;;14.02;8.10;;;;;;;;;;4996454;28;21082;-70
2022/10/26 02:42:26;;;;;;;16.23;9.23;;;;;;;;;;4996885;28;20040;-69
2022/10/26 02:44:53;;;;;;;16.05;12.65;;;;;;;;;;4996369;28;20037;-69
2022/10/26 02:47:19;;;;;;;20.58;14.75;;;;;;;;;;4995627;28;20037;-69
2022/10/26 02:49:45;;;;;;;17.33;14.45;;;;;;;;;;4998526;28;20898;-69
2022/10/26 02:52:20;;;;;;;17.90;12.90;;;;;;;;;;4996398;28;20041;-69
2022/10/26 02:54:45;;;;;;;14.85;13.02;;;;;;;;;;4997289;28;20077;-69
2022/10/26 02:57:13;;;;;;;19.08;15.57;;;;;;;;;;4996002;28;20632;-69
2022/10/26 02:59:41;;;;;;;16.63;10.60;;;;;;;;;;4997885;28;20809;-69
2022/10/26 03:02:09;;;;;;;14.43;7.13;;;;;;;;;;4997740;28;20034;-69
2022/10/26 03:04:35;;;;;;;12.98;5.75;;;;;;;;;;4998610;28;20021;-70
2022/10/26 03:07:05;;;;;;;9.75;4.53;;;;;;;;;;4995399;28;20029;-70
2022/10/26 03:09:30;;;;;;;13.43;5.18;;;;;;;;;;4997301;28;20101;-69
2022/10/26 03:11:55;;;;;;;12.68;5.00;;;;;;;;;;4997812;28;20106;-68
2022/10/26 03:14:21;;;;;;;9.88;5.85;;;;;;;;;;4995691;28;20043;-69
2022/10/26 03:16:46;;;;;;;14.45;5.13;;;;;;;;;;4995545;28;20037;-69
2022/10/26 03:19:11;;;;;;;14.82;7.07;;;;;;;;;;5001301;28;20029;-69
2022/10/26 03:21:37;;;;;;;15.80;9.20;;;;;;;;;;4997866;28;20766;-70
2022/10/26 03:24:02;;;;;;;12.30;8.57;;;;;;;;;;4998704;28;20037;-68
2022/10/26 03:26:30;;;;;;;13.18;9.20;;;;;;;;;;4997225;28;20052;-69
2022/10/26 03:28:55;;;;;;;16.77;11.23;;;;;;;;;;4998675;28;20029;-68
2022/10/26 03:31:20;;;;;;;16.35;8.60;;;;;;;;;;4997651;28;20044;-69
2022/10/26 03:33:45;;;;;;;14.90;7.43;;;;;;;;;;4997805;28;20033;-68
2022/10/26 03:36:11;;;;;;;12.15;7.15;;;;;;;;;;4996727;28;20036;-69
2022/10/26 03:38:36;;;;;;;17.27;6.60;;;;;;;;;;4996282;28;20033;-69
2022/10/26 03:41:01;;;;;;;12.30;5.93;;;;;;;;;;4979713;28;21064;-68
2022/10/26 03:43:27;;;;;;;11.40;6.28;;;;;;;;;;4978729;28;20828;-69
2022/10/26 03:45:52;;;;;;;13.40;7.72;;;;;;;;;;4997708;28;20064;-70
2022/10/26 03:48:17;;;;;;;15.82;7.60;;;;;;;;;;4997372;28;20053;-70
2022/10/26 03:50:45;;;;;;;12.07;5.85;;;;;;;;;;5000459;28;20158;-69
2022/10/26 03:53:13;;;;;;;15.90;6.05;;;;;;;;;;4995973;28;20111;-69
2022/10/26 03:55:38;;;;;;;12.00;4.90;;;;;;;;;;4995682;28;20032;-68
2022/10/26 03:58:03;;;;;;;20.23;7.53;;;;;;;;;;4995292;28;20045;-69
2022/10/26 04:00:29;;;;;;;11.38;6.03;;;;;;;;;;4996924;28;20044;-68
2022/10/26 04:02:55;;;;;;;16.65;8.05;;;;;;;;;;4992241;28;20029;-71
2022/10/26 04:05:21;;;;;;;17.33;8.77;;;;;;;;;;4987774;28;20044;-70
2022/10/26 04:07:53;;;;;;;16.55;8.30;;;;;;;;;;4989166;28;20250;-70
2022/10/26 04:10:19;;;;;;;16.73;9.15;;;;;;;;;;4988933;28;20041;-69
2022/10/26 04:12:45;;;;;;;20.70;10.40;;;;;;;;;;4990702;28;20041;-69
2022/10/26 04:15:11;;;;;;;18.75;8.13;;;;;;;;;;4994941;28;20755;-71
2022/10/26 04:17:36;;;;;;;20.05;9.25;;;;;;;;;;4980299;28;20056;-71
2022/10/26 04:20:03;;;;;;;18.88;10.02;;;;;;;;;;4998773;28;20079;-67
2022/10/26 04:22:28;;;;;;;18.73;8.85;;;;;;;;;;4999440;28;20029;-67
2022/10/26 04:24:54;;;;;;;17.55;8.95;;;;;;;;;;4997597;28;20366;-69
2022/10/26 04:27:19;;;;;;;15.82;8.25;;;;;;;;;;4999988;28;20044;-71
2022/10/26 04:29:44;;;;;;;16.75;6.72;;;;;;;;;;4998390;28;20119;-68
2022/10/26 04:32:10;;;;;;;16.90;6.95;;;;;;;;;;5000193;28;20028;-68
2022/10/26 04:34:35;;;;;;;17.13;6.72;;;;;;;;;;5003793;28;20214;-71
2022/10/26 04:37:00;;;;;;;20.05;9.02;;;;;;;;;;4997134;28;20040;-69
2022/10/26 04:39:28;;;;;;;18.45;8.30;;;;;;;;;;5000671;28;20064;-69
2022/10/26 04:41:53;;;;;;;16.55;7.72;;;;;;;;;;4999483;28;20881;-68
2022/10/26 04:44:19;;;;;;;17.25;7.55;;;;;;;;;;4998735;28;20040;-69
2022/10/26 04:46:44;;;;;;;15.05;7.40;;;;;;;;;;4998867;28;20745;-68
2022/10/26 04:49:10;;;;;;;15.65;7.85;;;;;;;;;;4998624;28;20882;-70
2022/10/26 04:51:35;;;;;;;19.50;7.82;;;;;;;;;;4996356;28;20172;-69
2022/10/26 04:54:02;;;;;;;17.05;8.60;;;;;;;;;;4990838;28;20801;-69
2022/10/26 04:56:27;;;;;;;27.25;11.88;;;;;;;;;;4998659;28;20033;-67
2022/10/26 04:58:55;;;;;;;21.55;11.20;;;;;;;;;;4999048;28;20037;-68
2022/10/26 05:01:21;;;;;;;20.55;9.05;;;;;;;;;;4998459;28;20888;-68
2022/10/26 05:03:52;;;;;;;21.42;9.68;;;;;;;;;;4997796;28;20119;-69
2022/10/26 05:06:18;;;;;;;22.35;10.02;;;;;;;;;;4999415;28;20033;-70
2022/10/26 05:08:44;;;;;;;18.55;7.63;;;;;;;;;;4996986;28;20064;-67
2022/10/26 05:11:11;;;;;;;25.38;9.00;;;;;;;;;;5001561;28;20588;-67
2022/10/26 05:13:37;;;;;;;13.27;6.95;;;;;;;;;;4998968;28;20044;-68
2022/10/26 05:16:02;;;;;;;13.02;6.45;;;;;;;;;;4997805;28;20064;-69
2022/10/26 05:18:30;;;;;;;12.95;6.30;;;;;;;;;;4999187;28;20039;-67
2022/10/26 05:20:57;;;;;;;18.20;6.60;;;;;;;;;;4996727;28;20886;-69
2022/10/26 05:23:23;;;;;;;13.95;6.15;;;;;;;;;;4997664;28;20041;-70
2022/10/26 05:25:48;;;;;;;14.00;6.53;;;;;;;;;;4997993;28;20119;-70
2022/10/26 05:28:17;;;;;;;13.80;6.18;;;;;;;;;;4997918;28;20148;-70
2022/10/26 05:30:44;;;;;;;10.30;5.95;;;;;;;;;;4997598;28;20807;-68
2022/10/26 05:33:10;;;;;;;13.70;6.15;;;;;;;;;;4996033;28;21398;-67
2022/10/26 05:35:36;;;;;;;16.27;6.28;;;;;;;;;;4999060;28;20782;-66
2022/10/26 05:38:16;;;;;;;14.63;5.93;;;;;;;;;;4997929;28;20681;-70
2022/10/26 05:40:51;;;;;;;17.80;6.30;;;;;;;;;;4998119;28;20041;-66
2022/10/26 05:43:17;;;;;;;12.07;5.50;;;;;;;;;;4997669;28;20041;-68
2022/10/26 05:45:45;;;;;;;12.85;5.72;;;;;;;;;;4999355;28;22557;-68
2022/10/26 05:48:10;;;;;;;16.52;6.53;;;;;;;;;;4993933;28;20033;-68
2022/10/26 05:50:36;;;;;;;34.10;14.38;;;;;;;;;;4995474;28;20362;-67
2022/10/26 05:53:01;;;;;;;22.52;11.45;;;;;;;;;;4998038;28;20107;-67
2022/10/26 05:55:27;;;;;;;22.52;10.23;;;;;;;;;;4997624;28;20866;-67
2022/10/26 05:57:53;;;;;;;21.92;10.35;;;;;;;;;;5000749;28;20040;-67
2022/10/26 06:00:20;;;;;;;19.58;8.88;;;;;;;;;;4996701;28;20045;-68
2022/10/26 06:03:00;;;;;;;14.27;7.22;;;;;;;;;;4996077;28;20034;-68
2022/10/26 06:05:26;;;;;;;17.45;6.70;;;;;;;;;;5000387;28;20029;-67
2022/10/26 06:07:52;;;;;;;17.42;6.05;;;;;;;;;;4998085;28;20048;-66
2022/10/26 06:10:18;;;;;;;19.70;7.60;;;;;;;;;;4999008;28;20045;-69
2022/10/26 06:12:46;;;;;;;18.83;8.73;;;;;;;;;;4995491;28;20037;-67
2022/10/26 06:15:20;;;;;;;24.13;8.30;;;;;;;;;;4999367;28;20037;-69
2022/10/26 06:18:04;;;;;;;26.23;10.45;;;;;;;;;;4999919;28;20253;-67
2022/10/26 06:20:49;;;;;;;21.73;8.45;;;;;;;;;;4998733;28;20025;-65
2022/10/26 06:23:33;;;;;;;14.27;7.40;;;;;;;;;;4996669;28;20072;-67
2022/10/26 06:26:06;;;;;;;20.50;7.72;;;;;;;;;;4999688;28;20040;-67
2022/10/26 06:28:40;;;;;;;13.27;5.72;;;;;;;;;;4998961;28;20041;-67
2022/10/26 06:31:06;;;;;;;23.20;7.82;;;;;;;;;;4999699;28;20061;-67
2022/10/26 06:33:31;;;;;;;16.52;7.32;;;;;;;;;;4999675;28;20929;-67
2022/10/26 06:35:57;;;;;;;24.55;9.77;;;;;;;;;;4998561;28;20084;-67
2022/10/26 06:38:26;;;;;;;24.08;11.52;;;;;;;;;;5000721;28;20037;-69
2022/10/26 06:40:54;;;;;;;23.70;11.10;;;;;;;;;;4999658;28;20030;-68
2022/10/26 06:43:23;;;;;;;29.10;10.65;;;;;;;;;;5002564;28;20105;-67
2022/10/26 06:45:55;;;;;;;19.33;8.05;;;;;;;;;;4993091;28;20888;-68
2022/10/26 06:48:20;;;;;;;;;;;;;;;;;;5009188;28;20041;-68
2022/10/26 06:50:50;;;;;;;16.67;6.93;;;;;;;;;;4998739;28;19921;-67
2022/10/26 06:53:37;;;;;;;17.00;7.82;;;;;;;;;;5000057;28;20048;-66
2022/10/26 06:56:02;;;;;;;15.15;7.85;;;;;;;;;;4997139;28;20205;-67
2022/10/26 06:58:31;;;;;;;19.15;7.68;;;;;;;;;;4996454;28;20079;-66
2022/10/26 07:00:57;;;;;;;17.05;7.18;;;;;;;;;;4996269;28;20789;-68
2022/10/26 07:03:22;;;;;;;17.40;6.18;;;;;;;;;;4996858;28;20417;-68
2022/10/26 07:05:50;;;;;;;14.48;6.40;;;;;;;;;;4995981;28;20038;-66
2022/10/26 07:08:15;;;;;;;21.38;7.45;;;;;;;;;;4993907;28;20100;-66
2022/10/26 07:10:42;;;;;;;12.40;6.40;;;;;;;;;;4996584;28;20508;-66
2022/10/26 07:13:08;;;;;;;24.27;9.05;;;;;;;;;;4995879;28;20123;-67
2022/10/26 07:15:36;;;;;;;21.90;9.65;;;;;;;;;;4996945;28;20260;-64
2022/10/26 07:18:04;;;;;;;16.85;8.10;;;;;;;;;;4995462;28;20095;-66
2022/10/26 07:20:30;;;;;;;18.98;7.78;;;;;;;;;;4995402;28;20428;-67
2022/10/26 07:22:56;;;;;;;13.85;6.88;;;;;;;;;;4996764;28;20553;-69
2022/10/26 07:25:23;;;;;;;15.32;6.47;;;;;;;;;;4994912;28;20041;-66
2022/10/26 07:27:49;;;;;;;11.43;5.35;;;;;;;;;;4996539;28;20218;-67
2022/10/26 07:30:14;;;;;;;17.17;7.25;;;;;;;;;;4994787;28;20072;-66
2022/10/26 07:32:42;;;;;;;13.55;5.25;;;;;;;;;;4993630;28;20437;-67
2022/10/26 07:35:07;;;;;;;15.70;6.20;;;;;;;;;;4996838;28;20140;-69
2022/10/26 07:37:37;;;;;;;13.90;5.30;;;;;;;;;;4995730;28;20044;-66
2022/10/26 07:40:03;;;;;;;13.98;5.22;;;;;;;;;;4993775;28;20044;-65
2022/10/26 07:42:29;;;;;;;10.98;4.90;;;;;;;;;;4995567;28;21315;-66
2022/10/26 07:44:55;;;;;;;13.77;4.72;;;;;;;;;;4995865;28;20267;-68
2022/10/26 07:47:21;;;;;;;17.05;6.15;;;;;;;;;;4994690;28;20037;-66
2022/10/26 07:49:47;;;;;;;14.00;5.60;;;;;;;;;;4992151;28;20021;-67
2022/10/26 07:52:12;;;;;;;19.05;7.18;;;;;;;;;;4996702;28;20052;-68
2022/10/26 07:54:37;;;;;;;19.83;7.10;;;;;;;;;;4993406;28;20667;-67
2022/10/26 07:57:03;;;;;;;20.50;7.72;;;;;;;;;;4996866;28;20488;-68
2022/10/26 07:59:31;;;;;;;14.35;5.45;;;;;;;;;;4997179;28;20025;-68
2022/10/26 08:01:58;;;;;;;19.13;5.97;;;;;;;;;;4997006;28;20032;-67
2022/10/26 08:04:24;;;;;;;22.88;7.82;;;;;;;;;;4993619;28;20029;-67
2022/10/26 08:06:50;;;;;;;39.08;11.85;;;;;;;;;;5000030;28;20029;-67
2022/10/26 08:09:15;;;;;;;28.27;9.95;;;;;;;;;;4994619;28;20029;-67
2022/10/26 08:11:41;;;;;;;26.35;8.43;;;;;;;;;;4996133;28;20049;-68
2022/10/26 08:14:06;;;;;;;31.10;10.43;;;;;;;;;;4996804;28;20037;-67
2022/10/26 08:16:33;;;;;;;21.33;8.38;;;;;;;;;;4994191;28;20114;-69
2022/10/26 08:18:59;;;;;;;28.58;10.25;;;;;;;;;;4997596;28;20053;-69
2022/10/26 08:21:24;;;;;;;28.65;9.63;;;;;;;;;;4994930;28;20588;-68
2022/10/26 08:23:49;;;;;;;29.77;9.15;;;;;;;;;;4995280;28;20044;-69
2022/10/26 08:26:16;;;;;;;28.60;10.43;;;;;;;;;;4980198;28;20081;-69
2022/10/26 08:28:41;;;;;;;27.02;9.02;;;;;;;;;;4995658;28;20301;-68
2022/10/26 08:31:06;;;;;;;25.92;8.63;;;;;;;;;;4996348;28;20131;-70
2022/10/26 08:33:34;;;;;;;29.45;8.40;;;;;;;;;;4996550;28;20218;-71
2022/10/26 08:36:01;;;;;;;25.58;9.30;;;;;;;;;;4999874;28;20039;-70
2022/10/26 08:38:26;;;;;;;23.75;8.40;;;;;;;;;;4993665;28;20351;-71
2022/10/26 08:40:52;;;;;;;29.33;8.52;;;;;;;;;;4977615;28;20037;-70
2022/10/26 08:43:21;;;;;;;18.95;6.97;;;;;;;;;;4994076;28;20029;-69
2022/10/26 08:45:53;;;;;;;20.15;8.13;;;;;;;;;;4989660;28;20065;-69
2022/10/26 08:48:18;;;;;;;;;;;;;;;;;;4993827;28;20040;-68
2022/10/26 08:50:49;;;;;;;22.63;7.13;;;;;;;;;;4992837;28;20412;-70
2022/10/26 08:53:30;;;;;;;21.98;7.88;;;;;;;;;;4992592;28;20390;-72
2022/10/26 08:56:02;;;;;;;24.52;8.82;;;;;;;;;;4992668;28;20036;-72
2022/10/26 08:58:52;;;;;;;15.68;5.70;;;;;;;;;;4997370;28;20086;-71
2022/10/26 09:01:17;;;;;;;13.55;5.30;;;;;;;;;;4993705;28;20034;-71
2022/10/26 09:03:43;;;;;;;12.77;5.68;;;;;;;;;;4996631;28;20036;-72
2022/10/26 09:06:08;;;;;;;17.55;6.22;;;;;;;;;;4998415;28;20045;-71
2022/10/26 09:08:37;;;;;;;16.30;5.70;;;;;;;;;;4997353;28;20595;-71
2022/10/26 09:11:09;;;;;;;13.98;5.20;;;;;;;;;;4999607;28;20052;-71
2022/10/26 09:13:53;;;;;;;9.95;5.15;;;;;;;;;;4996084;28;20076;-70
2022/10/26 09:16:18;;;;;;;19.67;7.53;;;;;;;;;;4998488;28;20040;-74
2022/10/26 09:18:55;;;;;;;21.15;8.27;;;;;;;;;;4996108;28;20029;-73
2022/10/26 09:21:27;;;;;;;18.77;5.55;;;;;;;;;;4997861;28;20992;-70
2022/10/26 09:24:05;;;;;;;15.80;5.15;;;;;;;;;;4995900;28;21052;-71
2022/10/26 09:26:45;;;;;;;12.63;5.70;;;;;;;;;;4995418;28;20054;-68
2022/10/26 09:29:11;;;;;;;14.13;4.97;;;;;;;;;;4999538;28;20029;-68
2022/10/26 09:31:41;;;;;;;10.50;4.72;;;;;;;;;;5001191;28;20103;-70
2022/10/26 09:34:13;;;;;;;10.07;5.20;;;;;;;;;;4998332;28;20040;-67
2022/10/26 09:36:38;;;;;;;9.90;5.57;;;;;;;;;;4994276;28;20040;-69
2022/10/26 09:39:12;;;;;;;10.55;4.20;;;;;;;;;;4999622;28;20782;-71
2022/10/26 09:41:44;;;;;;;12.88;6.05;;;;;;;;;;4998339;28;20551;-69
2022/10/26 09:44:11;;;;;;;11.05;5.57;;;;;;;;;;4996648;28;20038;-70
2022/10/26 09:46:45;;;;;;;9.85;5.45;;;;;;;;;;4997613;28;20497;-67
2022/10/26 09:49:12;;;;;;;11.98;6.00;;;;;;;;;;4996123;28;20047;-69
2022/10/26 09:51:38;;;;;;;12.32;5.30;;;;;;;;;;4995510;28;20049;-69
2022/10/26 09:54:09;;;;;;;10.60;5.65;;;;;;;;;;5011617;28;20072;-68
2022/10/26 09:56:37;;;;;;;12.68;5.63;;;;;;;;;;4998813;28;20048;-68
2022/10/26 09:59:04;;;;;;;12.88;6.00;;;;;;;;;;4998016;28;20029;-70
2022/10/26 10:01:33;;;;;;;9.90;5.78;;;;;;;;;;5000455;28;20103;-69
2022/10/26 10:04:27;;;;;;;14.80;5.43;;;;;;;;;;4997592;28;20044;-68
2022/10/26 10:07:11;;;;;;;14.63;6.13;;;;;;;;;;4998309;28;22339;-71
2022/10/26 10:09:37;;;;;;;10.70;6.60;;;;;;;;;;4996286;28;20037;-68
2022/10/26 10:12:03;;;;;;;12.30;6.30;;;;;;;;;;4999604;28;20130;-67
2022/10/26 10:14:32;;;;;;;12.07;6.20;;;;;;;;;;4996135;28;22407;-69
2022/10/26 10:17:02;;;;;;;15.60;4.82;;;;;;;;;;5011623;28;20041;-67
2022/10/26 10:19:31;;;;;;;16.05;5.07;;;;;;;;;;4996566;28;20037;-73
2022/10/26 10:21:58;;;;;;;12.93;3.70;;;;;;;;;;4996450;28;20132;-70
2022/10/26 10:24:31;;;;;;;10.50;3.40;;;;;;;;;;4997708;28;20952;-68
2022/10/26 10:26:56;;;;;;;11.60;3.25;;;;;;;;;;4996876;28;20034;-70
2022/10/26 10:29:24;;;;;;;9.82;3.75;;;;;;;;;;4996784;28;20065;-71
2022/10/26 10:31:54;;;;;;;11.43;3.60;;;;;;;;;;4998839;28;20175;-70
2022/10/26 10:34:21;;;;;;;14.32;3.90;;;;;;;;;;4995606;28;20041;-71
2022/10/26 10:36:46;;;;;;;14.10;4.30;;;;;;;;;;5011801;28;20033;-70
2022/10/26 10:39:38;;;;;;;12.43;4.75;;;;;;;;;;4994442;28;20781;-68
2022/10/26 10:42:05;;;;;;;11.15;5.68;;;;;;;;;;4992440;28;20044;-68
2022/10/26 10:44:31;;;;;;;12.70;5.95;;;;;;;;;;4993850;28;20037;-69
2022/10/26 10:47:07;;;;;;;13.45;5.85;;;;;;;;;;4995878;28;20794;-71
2022/10/26 10:49:33;;;;;;;16.23;5.60;;;;;;;;;;4991235;28;20428;-70
2022/10/26 10:51:59;;;;;;;11.85;4.93;;;;;;;;;;4986173;28;20053;-70
2022/10/26 10:54:38;;;;;;;15.07;5.80;;;;;;;;;;5006870;28;20033;-70
2022/10/26 10:57:22;;;;;;;15.60;4.32;;;;;;;;;;4999253;28;20037;-69
2022/10/26 11:00:04;;;;;;;11.25;3.65;;;;;;;;;;4999360;28;20492;-70
2022/10/26 11:02:49;;;;;;;12.13;5.35;;;;;;;;;;4994686;28;20037;-68
2022/10/26 11:05:33;;;;;;;14.70;6.22;;;;;;;;;;4994642;28;20037;-70
2022/10/26 11:08:01;;;;;;;19.17;7.55;;;;;;;;;;4996481;28;20576;-69
2022/10/26 11:10:29;;;;;;;24.10;8.10;;;;;;;;;;4995123;28;20041;-69
2022/10/26 11:13:00;;;;;;;14.45;4.97;;;;;;;;;;4995200;28;20044;-70
2022/10/26 11:15:28;;;;;;;16.48;5.45;;;;;;;;;;4995466;28;20297;-68
2022/10/26 11:18:03;;;;;;;12.93;5.85;;;;;;;;;;4995889;28;20041;-71
2022/10/26 11:20:30;;;;;;;16.95;6.32;;;;;;;;;;4994186;28;20144;-70
2022/10/26 11:23:08;;;;;;;18.23;6.45;;;;;;;;;;4994578;28;20041;-71
2022/10/26 11:25:35;;;;;;;14.77;5.38;;;;;;;;;;4992209;28;20037;-70
2022/10/26 11:28:10;;;;;;;13.10;3.47;;;;;;;;;;4994865;28;20060;-69
2022/10/26 11:30:36;;;;;;;10.43;3.17;;;;;;;;;;4996481;28;20041;-70
2022/10/26 11:33:04;;;;;;;9.95;2.40;;;;;;;;;;4995698;28;20140;-69
2022/10/26 11:35:31;;;;;;;10.20;2.85;;;;;;;;;;4994973;28;20079;-70
2022/10/26 11:38:19;;;;;;;7.97;2.42;;;;;;;;;;4993568;28;20177;-71
2022/10/26 11:40:58;;;;;;;11.98;3.33;;;;;;;;;;4995516;28;20051;-68
2022/10/26 11:43:29;;;;;;;10.40;4.78;;;;;;;;;;4995474;28;20729;-69
2022/10/26 11:46:04;;;;;;;11.52;3.53;;;;;;;;;;4996118;28;20328;-67
2022/10/26 11:48:48;;;;;;;15.40;4.53;;;;;;;;;;4992570;28;20280;-67
2022/10/26 11:51:29;;;;;;;12.07;4.47;;;;;;;;;;4994747;28;20733;-68
2022/10/26 11:53:55;;;;;;;15.95;4.55;;;;;;;;;;4994705;28;20683;-66
2022/10/26 11:56:44;;;;;;;10.80;5.75;;;;;;;;;;4994691;28;20037;-68
2022/10/26 11:59:15;;;;;;;16.35;5.57;;;;;;;;;;4990326;28;20033;-68
2022/10/26 12:01:41;;;;;;;;;;;;;;;;;;4996551;28;20083;-68
2022/10/26 12:04:06;;;;;;;13.20;4.43;;;;;;;;;;4994759;28;20039;-68
2022/10/26 12:06:37;;;;;;;12.82;4.30;;;;;;;;;;4994371;28;20622;-68
2022/10/26 12:09:04;;;;;;;15.40;4.97;;;;;;;;;;4991798;28;20036;-70
2022/10/26 12:11:33;;;;;;;13.75;5.90;;;;;;;;;;4995220;28;20046;-68
2022/10/26 12:14:01;;;;;;;16.92;3.70;;;;;;;;;;4995081;28;20124;-68
2022/10/26 12:16:32;;;;;;;14.55;4.50;;;;;;;;;;4994590;28;20517;-67
2022/10/26 12:18:59;;;;;;;17.27;6.25;;;;;;;;;;4994554;28;20861;-68
2022/10/26 12:21:27;;;;;;;19.08;6.88;;;;;;;;;;4976918;28;20044;-68
2022/10/26 12:23:52;;;;;;;15.15;3.83;;;;;;;;;;4994986;28;20034;-71
2022/10/26 12:26:27;;;;;;;18.95;3.95;;;;;;;;;;4992753;28;20132;-68
2022/10/26 12:29:00;;;;;;;17.27;3.60;;;;;;;;;;4994243;28;20447;-72
2022/10/26 12:31:35;;;;;;;14.77;3.83;;;;;;;;;;4993428;28;20067;-66
2022/10/26 12:34:00;;;;;;;16.00;4.18;;;;;;;;;;4996296;28;20033;-70
2022/10/26 12:36:45;;;;;;;11.25;3.22;;;;;;;;;;4998061;28;20029;-71
2022/10/26 12:39:29;;;;;;;14.98;3.20;;;;;;;;;;4999135;28;20045;-69
2022/10/26 12:42:08;;;;;;;16.30;3.15;;;;;;;;;;4993422;28;20768;-68
2022/10/26 12:44:33;;;;;;;12.07;3.10;;;;;;;;;;4997587;28;20251;-68
2022/10/26 12:47:01;;;;;;;12.55;3.70;;;;;;;;;;4996173;28;20508;-71
2022/10/26 12:49:46;;;;;;;11.73;2.78;;;;;;;;;;4997821;28;20136;-69
2022/10/26 12:52:24;;;;;;;12.98;2.85;;;;;;;;;;4996899;28;20190;-70
2022/10/26 12:55:07;;;;;;;16.02;2.95;;;;;;;;;;4998754;28;20429;-66
2022/10/26 12:57:45;;;;;;;15.02;3.08;;;;;;;;;;4998244;28;20627;-69
2022/10/26 13:00:20;;;;;;;17.77;2.72;;;;;;;;;;4998694;28;20033;-70
2022/10/26 13:03:03;;;;;;;18.75;3.97;;;;;;;;;;4997306;28;20076;-67
2022/10/26 13:05:28;;;;;;;20.90;3.38;;;;;;;;;;4997043;28;20773;-69
2022/10/26 13:07:59;;;;;;;20.67;3.75;;;;;;;;;;4999787;28;20223;-72
2022/10/26 13:10:25;;;;;;;18.38;3.75;;;;;;;;;;5011676;28;20111;-71
2022/10/26 13:12:52;;;;;;;19.02;3.33;;;;;;;;;;4998716;28;20661;-68
2022/10/26 13:15:22;;;;;;;19.40;5.60;;;;;;;;;;4978734;28;20532;-70
2022/10/26 13:17:53;;;;;;;16.75;4.90;;;;;;;;;;4979352;28;20600;-68
2022/10/26 13:20:21;;;;;;;22.58;5.07;;;;;;;;;;4978790;28;20068;-68
2022/10/26 13:22:47;;;;;;;17.50;5.75;;;;;;;;;;4975953;28;20069;-67
2022/10/26 13:25:24;;;;;;;20.60;7.22;;;;;;;;;;4975565;28;20195;-73
2022/10/26 13:27:57;;;;;;;14.10;3.35;;;;;;;;;;4976840;28;20065;-67
2022/10/26 13:30:31;;;;;;;16.02;3.50;;;;;;;;;;4978366;28;20056;-69
2022/10/26 13:32:57;;;;;;;19.10;3.67;;;;;;;;;;4977857;28;20045;-70
2022/10/26 13:35:23;;;;;;;20.25;3.50;;;;;;;;;;4992863;28;20722;-69
2022/10/26 13:37:50;;;;;;;15.70;3.28;;;;;;;;;;4998625;28;20060;-69
2022/10/26 13:40:17;;;;;;;17.40;3.38;;;;;;;;;;4997775;28;20480;-69
2022/10/26 13:42:51;;;;;;;10.43;2.50;;;;;;;;;;4996512;28;20048;-67
2022/10/26 13:45:22;;;;;;;14.85;3.03;;;;;;;;;;4992501;28;20033;-69
2022/10/26 13:47:53;;;;;;;16.63;2.57;;;;;;;;;;5012047;28;20033;-70
2022/10/26 13:50:21;;;;;;;16.08;3.28;;;;;;;;;;5011395;28;20036;-70
2022/10/26 13:52:49;;;;;;;14.73;2.75;;;;;;;;;;4996160;28;20046;-70
2022/10/26 13:55:19;;;;;;;16.63;2.75;;;;;;;;;;4997039;28;20414;-68
2022/10/26 13:57:50;;;;;;;20.25;3.20;;;;;;;;;;4998186;28;20178;-69
2022/10/26 14:00:18;;;;;;;14.30;2.80;;;;;;;;;;4997536;28;20767;-69
2022/10/26 14:02:43;;;;;;;15.68;2.90;;;;;;;;;;4997872;28;20029;-69
2022/10/26 14:05:11;;;;;;;12.27;2.45;;;;;;;;;;4997507;28;20041;-68
2022/10/26 14:07:40;;;;;;;13.40;2.50;;;;;;;;;;4994359;28;20997;-70
2022/10/26 14:10:05;;;;;;;12.20;2.97;;;;;;;;;;4996231;28;20033;-69
2022/10/26 14:12:33;;;;;;;11.55;2.60;;;;;;;;;;4961344;28;20393;-70
2022/10/26 14:15:05;;;;;;;13.57;2.45;;;;;;;;;;4997235;28;20274;-70
2022/10/26 14:17:31;;;;;;;9.07;2.40;;;;;;;;;;4999570;28;20964;-70
2022/10/26 14:19:56;;;;;;;10.88;2.78;;;;;;;;;;4998560;28;20037;-69
2022/10/26 14:22:24;;;;;;;12.40;5.70;;;;;;;;;;5000031;28;20146;-70
2022/10/26 14:24:53;;;;;;;15.38;6.07;;;;;;;;;;4997290;28;20344;-69
2022/10/26 14:27:20;;;;;;;11.63;5.10;;;;;;;;;;4995770;28;20040;-70
2022/10/26 14:29:49;;;;;;;17.63;6.43;;;;;;;;;;4995797;28;20037;-70
2022/10/26 14:32:29;;;;;;;10.70;2.85;;;;;;;;;;4994078;28;20049;-72
2022/10/26 14:34:54;;;;;;;13.10;2.55;;;;;;;;;;4996063;28;20573;-69
2022/10/26 14:37:26;;;;;;;11.57;2.35;;;;;;;;;;4994535;28;20517;-70
2022/10/26 14:39:51;;;;;;;11.07;2.40;;;;;;;;;;4993669;28;20243;-72